sensor_id;sensor_type;location;lat;lon;timestamp;temperature;humidity
52321;DHT22;38261;54.090;13.382;2023-02-13T00:00:19;7.70;99.90
52321;DHT22;38261;54.090;13.382;2023-02-13T00:01:41;7.70;99.90
52321;DHT22;38261;54.090;13.382;2023-02-13T00:03:04;7.70;99.90
52321;DHT22;38261;54.090;13.382;2023-02-13T00:04:26;7.70;99.90
52321;DHT22;38261;54.090;13.382;2023-02-13T00:05:48;7.70;99.90
52321;DHT22;38261;54.090;13.382;2023-02-13T00:07:10;7.70;99.90
52321;DHT22;38261;54.090;13.382;2023-02-13T00:08:33;7.60;99.90
52321;DHT22;38261;54.090;13.382;2023-02-13T00:09:55;7.60;99.90
52321;DHT22;38261;54.090;13.382;2023-02-13T00:11:17;7.60;99.90
52321;DHT22;38261;54.090;13.382;2023-02-13T00:12:39;7.60;99.90
52321;DHT22;38261;54.090;13.382;2023-02-13T00:14:02;7.60;99.90
52321;DHT22;38261;54.090;13.382;2023-02-13T00:15:24;7.60;99.90
52321;DHT22;38261;54.090;13.382;2023-02-13T00:16:46;7.60;99.90
52321;DHT22;38261;54.090;13.382;2023-02-13T00:18:08;7.60;99.90
52321;DHT22;38261;54.090;13.382;2023-02-13T00:19:31;7.60;99.90
52321;DHT22;38261;54.090;13.382;2023-02-13T00:21:00;7.60;99.90
52321;DHT22;38261;54.090;13.382;2023-02-13T00:22:23;7.60;99.90
52321;DHT22;38261;54.090;13.382;2023-02-13T00:23:45;7.60;99.90
52321;DHT22;38261;54.090;13.382;2023-02-13T00:25:08;7.60;99.90
52321;DHT22;38261;54.090;13.382;2023-02-13T00:26:30;7.60;99.90
52321;DHT22;38261;54.090;13.382;2023-02-13T00:27:52;7.60;99.90
52321;DHT22;38261;54.090;13.382;2023-02-13T00:29:15;7.60;99.90
52321;DHT22;38261;54.090;13.382;2023-02-13T00:30:37;7.60;99.90
52321;DHT22;38261;54.090;13.382;2023-02-13T00:31:59;7.60;99.90
52321;DHT22;38261;54.090;13.382;2023-02-13T00:33:22;7.60;99.90
52321;DHT22;38261;54.090;13.382;2023-02-13T00:34:44;7.60;99.90
52321;DHT22;38261;54.090;13.382;2023-02-13T00:36:12;7.60;99.90
52321;DHT22;38261;54.090;13.382;2023-02-13T00:37:35;7.60;99.90
52321;DHT22;38261;54.090;13.382;2023-02-13T00:38:57;7.60;99.90
52321;DHT22;38261;54.090;13.382;2023-02-13T00:40:19;7.60;99.90
52321;DHT22;38261;54.090;13.382;2023-02-13T00:41:41;7.60;99.90
52321;DHT22;38261;54.090;13.382;2023-02-13T00:43:03;7.60;99.90
52321;DHT22;38261;54.090;13.382;2023-02-13T00:44:25;7.60;99.90
52321;DHT22;38261;54.090;13.382;2023-02-13T00:45:48;7.60;99.90
52321;DHT22;38261;54.090;13.382;2023-02-13T00:47:10;7.60;99.90
52321;DHT22;38261;54.090;13.382;2023-02-13T00:48:35;7.60;99.90
52321;DHT22;38261;54.090;13.382;2023-02-13T00:49:58;7.60;99.90
52321;DHT22;38261;54.090;13.382;2023-02-13T00:51:20;7.50;99.90
52321;DHT22;38261;54.090;13.382;2023-02-13T00:52:43;7.50;99.90
52321;DHT22;38261;54.090;13.382;2023-02-13T00:54:05;7.50;99.90
52321;DHT22;38261;54.090;13.382;2023-02-13T00:55:27;7.50;99.90
52321;DHT22;38261;54.090;13.382;2023-02-13T00:56:49;7.50;99.90
52321;DHT22;38261;54.090;13.382;2023-02-13T00:58:11;7.50;99.90
52321;DHT22;38261;54.090;13.382;2023-02-13T00:59:34;7.50;99.90
52321;DHT22;38261;54.090;13.382;2023-02-13T01:00:56;7.50;99.90
52321;DHT22;38261;54.090;13.382;2023-02-13T01:02:18;7.50;99.90
52321;DHT22;38261;54.090;13.382;2023-02-13T01:03:41;7.50;99.90
52321;DHT22;38261;54.090;13.382;2023-02-13T01:05:03;7.40;99.90
52321;DHT22;38261;54.090;13.382;2023-02-13T01:06:25;7.40;99.90
52321;DHT22;38261;54.090;13.382;2023-02-13T01:07:48;7.50;99.90
52321;DHT22;38261;54.090;13.382;2023-02-13T01:09:11;7.40;99.90
52321;DHT22;38261;54.090;13.382;2023-02-13T01:10:33;7.50;99.90
52321;DHT22;38261;54.090;13.382;2023-02-13T01:11:55;7.40;99.90
52321;DHT22;38261;54.090;13.382;2023-02-13T01:13:17;7.40;99.90
52321;DHT22;38261;54.090;13.382;2023-02-13T01:14:39;7.40;99.90
52321;DHT22;38261;54.090;13.382;2023-02-13T01:16:02;7.40;99.90
52321;DHT22;38261;54.090;13.382;2023-02-13T01:17:24;7.40;99.90
52321;DHT22;38261;54.090;13.382;2023-02-13T01:18:46;7.40;99.90
52321;DHT22;38261;54.090;13.382;2023-02-13T01:20:11;7.40;99.90
52321;DHT22;38261;54.090;13.382;2023-02-13T01:21:33;7.40;99.90
52321;DHT22;38261;54.090;13.382;2023-02-13T01:22:56;7.40;99.90
52321;DHT22;38261;54.090;13.382;2023-02-13T01:24:18;7.40;99.90
52321;DHT22;38261;54.090;13.382;2023-02-13T01:25:41;7.40;99.90
52321;DHT22;38261;54.090;13.382;2023-02-13T01:27:03;7.40;99.90
52321;DHT22;38261;54.090;13.382;2023-02-13T01:28:26;7.40;99.90
52321;DHT22;38261;54.090;13.382;2023-02-13T01:29:48;7.40;99.90
52321;DHT22;38261;54.090;13.382;2023-02-13T01:31:10;7.40;99.90
52321;DHT22;38261;54.090;13.382;2023-02-13T01:32:32;7.40;99.90
52321;DHT22;38261;54.090;13.382;2023-02-13T01:33:56;7.30;99.90
52321;DHT22;38261;54.090;13.382;2023-02-13T01:35:18;7.40;99.90
52321;DHT22;38261;54.090;13.382;2023-02-13T01:36:41;7.40;99.90
52321;DHT22;38261;54.090;13.382;2023-02-13T01:38:03;7.40;99.90
52321;DHT22;38261;54.090;13.382;2023-02-13T01:39:25;7.40;99.90
52321;DHT22;38261;54.090;13.382;2023-02-13T01:40:51;7.40;99.90
52321;DHT22;38261;54.090;13.382;2023-02-13T01:42:21;7.40;99.90
52321;DHT22;38261;54.090;13.382;2023-02-13T01:43:49;7.40;99.90
52321;DHT22;38261;54.090;13.382;2023-02-13T01:45:22;7.40;99.90
52321;DHT22;38261;54.090;13.382;2023-02-13T01:46:45;7.40;99.90
52321;DHT22;38261;54.090;13.382;2023-02-13T01:48:33;7.30;99.90
52321;DHT22;38261;54.090;13.382;2023-02-13T01:51:32;7.30;99.90
52321;DHT22;38261;54.090;13.382;2023-02-13T01:54:30;7.30;99.90
52321;DHT22;38261;54.090;13.382;2023-02-13T01:56:58;7.40;99.90
52321;DHT22;38261;54.090;13.382;2023-02-13T01:58:12;7.30;99.90
52321;DHT22;38261;54.090;13.382;2023-02-13T01:59:56;7.30;99.90
52321;DHT22;38261;54.090;13.382;2023-02-13T02:01:20;7.30;99.90
52321;DHT22;38261;54.090;13.382;2023-02-13T02:02:48;7.30;99.90
52321;DHT22;38261;54.090;13.382;2023-02-13T02:04:18;7.30;99.90
52321;DHT22;38261;54.090;13.382;2023-02-13T02:05:43;7.30;99.90
52321;DHT22;38261;54.090;13.382;2023-02-13T02:07:25;7.30;99.90
52321;DHT22;38261;54.090;13.382;2023-02-13T02:08:49;7.20;99.90
52321;DHT22;38261;54.090;13.382;2023-02-13T02:10:15;7.20;99.90
52321;DHT22;38261;54.090;13.382;2023-02-13T02:11:51;7.20;99.90
52321;DHT22;38261;54.090;13.382;2023-02-13T02:13:19;7.20;99.90
52321;DHT22;38261;54.090;13.382;2023-02-13T02:14:42;7.20;99.90
52321;DHT22;38261;54.090;13.382;2023-02-13T02:16:04;7.20;99.90
52321;DHT22;38261;54.090;13.382;2023-02-13T02:17:27;7.20;99.90
52321;DHT22;38261;54.090;13.382;2023-02-13T02:18:49;7.20;99.90
52321;DHT22;38261;54.090;13.382;2023-02-13T02:25:32;7.20;99.90
52321;DHT22;38261;54.090;13.382;2023-02-13T02:27:30;7.20;99.90
52321;DHT22;38261;54.090;13.382;2023-02-13T02:32:44;7.20;99.90
52321;DHT22;38261;54.090;13.382;2023-02-13T02:37:43;7.20;99.90
52321;DHT22;38261;54.090;13.382;2023-02-13T02:39:31;7.10;99.90
52321;DHT22;38261;54.090;13.382;2023-02-13T02:42:50;7.20;99.90
52321;DHT22;38261;54.090;13.382;2023-02-13T02:48:02;7.20;99.90
52321;DHT22;38261;54.090;13.382;2023-02-13T02:49:50;7.20;99.90
52321;DHT22;38261;54.090;13.382;2023-02-13T02:53:14;7.20;99.90
52321;DHT22;38261;54.090;13.382;2023-02-13T02:56:57;7.20;99.90
52321;DHT22;38261;54.090;13.382;2023-02-13T02:58:21;7.10;99.90
52321;DHT22;38261;54.090;13.382;2023-02-13T03:00:04;7.10;99.90
52321;DHT22;38261;54.090;13.382;2023-02-13T03:01:45;7.20;99.90
52321;DHT22;38261;54.090;13.382;2023-02-13T03:03:27;7.20;99.90
52321;DHT22;38261;54.090;13.382;2023-02-13T03:05:23;7.20;99.90
52321;DHT22;38261;54.090;13.382;2023-02-13T03:07:08;7.20;99.90
52321;DHT22;38261;54.090;13.382;2023-02-13T03:08:32;7.10;99.90
52321;DHT22;38261;54.090;13.382;2023-02-13T03:10:24;7.20;99.90
52321;DHT22;38261;54.090;13.382;2023-02-13T03:12:07;7.20;99.90
52321;DHT22;38261;54.090;13.382;2023-02-13T03:13:49;7.20;99.90
52321;DHT22;38261;54.090;13.382;2023-02-13T03:15:11;7.20;99.90
52321;DHT22;38261;54.090;13.382;2023-02-13T03:16:33;7.20;99.90
52321;DHT22;38261;54.090;13.382;2023-02-13T03:18:14;7.20;99.90
52321;DHT22;38261;54.090;13.382;2023-02-13T03:21:54;7.20;99.90
52321;DHT22;38261;54.090;13.382;2023-02-13T03:25:04;7.20;99.90
52321;DHT22;38261;54.090;13.382;2023-02-13T03:30:02;7.20;99.90
52321;DHT22;38261;54.090;13.382;2023-02-13T03:34:21;7.20;99.90
52321;DHT22;38261;54.090;13.382;2023-02-13T03:38:07;7.20;99.90
52321;DHT22;38261;54.090;13.382;2023-02-13T03:41:29;7.20;99.90
52321;DHT22;38261;54.090;13.382;2023-02-13T03:44:55;7.10;99.90
52321;DHT22;38261;54.090;13.382;2023-02-13T03:46:39;7.10;99.90
52321;DHT22;38261;54.090;13.382;2023-02-13T03:48:04;7.10;99.90
52321;DHT22;38261;54.090;13.382;2023-02-13T03:49:48;7.20;99.90
52321;DHT22;38261;54.090;13.382;2023-02-13T03:53:36;7.20;99.90
52321;DHT22;38261;54.090;13.382;2023-02-13T03:55:20;7.10;99.90
52321;DHT22;38261;54.090;13.382;2023-02-13T03:57:02;7.10;99.90
52321;DHT22;38261;54.090;13.382;2023-02-13T03:58:46;7.10;99.90
52321;DHT22;38261;54.090;13.382;2023-02-13T04:00:35;7.10;99.90
52321;DHT22;38261;54.090;13.382;2023-02-13T04:02:06;7.10;99.90
52321;DHT22;38261;54.090;13.382;2023-02-13T04:04:00;7.10;99.90
52321;DHT22;38261;54.090;13.382;2023-02-13T04:05:28;7.10;99.90
52321;DHT22;38261;54.090;13.382;2023-02-13T04:07:11;7.10;99.90
52321;DHT22;38261;54.090;13.382;2023-02-13T04:08:50;7.10;99.90
52321;DHT22;38261;54.090;13.382;2023-02-13T04:10:14;7.10;99.90
52321;DHT22;38261;54.090;13.382;2023-02-13T04:13:27;7.20;99.90
52321;DHT22;38261;54.090;13.382;2023-02-13T04:15:03;7.20;99.90
52321;DHT22;38261;54.090;13.382;2023-02-13T04:16:30;7.10;99.90
52321;DHT22;38261;54.090;13.382;2023-02-13T04:19:25;7.10;99.90
52321;DHT22;38261;54.090;13.382;2023-02-13T04:20:47;7.10;99.90
52321;DHT22;38261;54.090;13.382;2023-02-13T04:22:11;7.10;99.90
52321;DHT22;38261;54.090;13.382;2023-02-13T04:23:33;7.10;99.90
52321;DHT22;38261;54.090;13.382;2023-02-13T04:24:57;7.10;99.90
52321;DHT22;38261;54.090;13.382;2023-02-13T04:26:22;7.10;99.90
52321;DHT22;38261;54.090;13.382;2023-02-13T04:27:44;7.10;99.90
52321;DHT22;38261;54.090;13.382;2023-02-13T04:29:06;7.10;99.90
52321;DHT22;38261;54.090;13.382;2023-02-13T04:30:28;7.10;99.90
52321;DHT22;38261;54.090;13.382;2023-02-13T04:31:51;7.10;99.90
52321;DHT22;38261;54.090;13.382;2023-02-13T04:33:13;7.10;99.90
52321;DHT22;38261;54.090;13.382;2023-02-13T04:34:35;7.10;99.90
52321;DHT22;38261;54.090;13.382;2023-02-13T04:35:58;7.10;99.90
52321;DHT22;38261;54.090;13.382;2023-02-13T04:37:20;7.10;99.90
52321;DHT22;38261;54.090;13.382;2023-02-13T04:38:42;7.10;99.90
52321;DHT22;38261;54.090;13.382;2023-02-13T04:40:06;7.00;99.90
52321;DHT22;38261;54.090;13.382;2023-02-13T04:41:28;7.00;99.90
52321;DHT22;38261;54.090;13.382;2023-02-13T04:42:50;7.00;99.90
52321;DHT22;38261;54.090;13.382;2023-02-13T04:44:13;7.00;99.90
52321;DHT22;38261;54.090;13.382;2023-02-13T04:45:35;7.10;99.90
52321;DHT22;38261;54.090;13.382;2023-02-13T04:46:57;7.00;99.90
52321;DHT22;38261;54.090;13.382;2023-02-13T04:48:19;7.00;99.90
52321;DHT22;38261;54.090;13.382;2023-02-13T04:49:41;7.00;99.90
52321;DHT22;38261;54.090;13.382;2023-02-13T04:51:03;7.10;99.90
52321;DHT22;38261;54.090;13.382;2023-02-13T04:52:25;7.00;99.90
52321;DHT22;38261;54.090;13.382;2023-02-13T04:53:47;7.00;99.90
52321;DHT22;38261;54.090;13.382;2023-02-13T04:55:09;7.00;99.90
52321;DHT22;38261;54.090;13.382;2023-02-13T04:56:31;7.00;99.90
52321;DHT22;38261;54.090;13.382;2023-02-13T04:57:54;7.10;99.90
52321;DHT22;38261;54.090;13.382;2023-02-13T04:59:16;7.00;99.90
52321;DHT22;38261;54.090;13.382;2023-02-13T05:00:38;7.00;99.90
52321;DHT22;38261;54.090;13.382;2023-02-13T05:02:00;7.00;99.90
52321;DHT22;38261;54.090;13.382;2023-02-13T05:03:22;7.00;99.90
52321;DHT22;38261;54.090;13.382;2023-02-13T05:04:45;7.00;99.90
52321;DHT22;38261;54.090;13.382;2023-02-13T05:06:07;7.00;99.90
52321;DHT22;38261;54.090;13.382;2023-02-13T05:07:29;7.00;99.90
52321;DHT22;38261;54.090;13.382;2023-02-13T05:08:51;6.90;99.90
52321;DHT22;38261;54.090;13.382;2023-02-13T05:10:13;7.00;99.90
52321;DHT22;38261;54.090;13.382;2023-02-13T05:11:35;6.90;99.90
52321;DHT22;38261;54.090;13.382;2023-02-13T05:12:58;7.00;99.90
52321;DHT22;38261;54.090;13.382;2023-02-13T05:14:20;6.90;99.90
52321;DHT22;38261;54.090;13.382;2023-02-13T05:15:42;6.90;99.90
52321;DHT22;38261;54.090;13.382;2023-02-13T05:17:04;6.90;99.90
52321;DHT22;38261;54.090;13.382;2023-02-13T05:18:27;6.90;99.90
52321;DHT22;38261;54.090;13.382;2023-02-13T05:19:49;6.90;99.90
52321;DHT22;38261;54.090;13.382;2023-02-13T05:21:11;6.90;99.90
52321;DHT22;38261;54.090;13.382;2023-02-13T05:22:53;6.90;99.90
52321;DHT22;38261;54.090;13.382;2023-02-13T05:24:34;6.80;99.90
52321;DHT22;38261;54.090;13.382;2023-02-13T05:25:56;6.90;99.90
52321;DHT22;38261;54.090;13.382;2023-02-13T05:27:18;6.80;99.90
52321;DHT22;38261;54.090;13.382;2023-02-13T05:28:40;6.80;99.90
52321;DHT22;38261;54.090;13.382;2023-02-13T05:30:21;6.90;99.90
52321;DHT22;38261;54.090;13.382;2023-02-13T05:31:44;6.80;99.90
52321;DHT22;38261;54.090;13.382;2023-02-13T05:33:06;6.80;99.90
52321;DHT22;38261;54.090;13.382;2023-02-13T05:34:28;6.80;99.90
52321;DHT22;38261;54.090;13.382;2023-02-13T05:35:50;6.80;99.90
52321;DHT22;38261;54.090;13.382;2023-02-13T05:37:13;6.80;99.90
52321;DHT22;38261;54.090;13.382;2023-02-13T05:38:35;6.80;99.90
52321;DHT22;38261;54.090;13.382;2023-02-13T05:39:57;6.80;99.90
52321;DHT22;38261;54.090;13.382;2023-02-13T05:41:19;6.80;99.90
52321;DHT22;38261;54.090;13.382;2023-02-13T05:42:42;6.80;99.90
52321;DHT22;38261;54.090;13.382;2023-02-13T05:44:04;6.80;99.90
52321;DHT22;38261;54.090;13.382;2023-02-13T05:45:26;6.80;99.90
52321;DHT22;38261;54.090;13.382;2023-02-13T05:46:48;6.80;99.90
52321;DHT22;38261;54.090;13.382;2023-02-13T05:48:10;6.80;99.90
52321;DHT22;38261;54.090;13.382;2023-02-13T05:49:32;6.80;99.90
52321;DHT22;38261;54.090;13.382;2023-02-13T05:50:54;6.80;99.90
52321;DHT22;38261;54.090;13.382;2023-02-13T05:52:17;6.70;99.90
52321;DHT22;38261;54.090;13.382;2023-02-13T05:53:39;6.70;99.90
52321;DHT22;38261;54.090;13.382;2023-02-13T05:55:01;6.80;99.90
52321;DHT22;38261;54.090;13.382;2023-02-13T05:56:24;6.80;99.90
52321;DHT22;38261;54.090;13.382;2023-02-13T05:57:46;6.80;99.90
52321;DHT22;38261;54.090;13.382;2023-02-13T05:59:08;6.80;99.90
52321;DHT22;38261;54.090;13.382;2023-02-13T06:00:30;6.80;99.90
52321;DHT22;38261;54.090;13.382;2023-02-13T06:01:52;6.80;99.90
52321;DHT22;38261;54.090;13.382;2023-02-13T06:03:14;6.80;99.90
52321;DHT22;38261;54.090;13.382;2023-02-13T06:04:36;6.80;99.90
52321;DHT22;38261;54.090;13.382;2023-02-13T06:05:59;6.80;99.90
52321;DHT22;38261;54.090;13.382;2023-02-13T06:07:21;6.80;99.90
52321;DHT22;38261;54.090;13.382;2023-02-13T06:08:43;6.80;99.90
52321;DHT22;38261;54.090;13.382;2023-02-13T06:10:06;6.80;99.90
52321;DHT22;38261;54.090;13.382;2023-02-13T06:11:28;6.80;99.90
52321;DHT22;38261;54.090;13.382;2023-02-13T06:12:50;6.80;99.90
52321;DHT22;38261;54.090;13.382;2023-02-13T06:14:12;6.70;99.90
52321;DHT22;38261;54.090;13.382;2023-02-13T06:15:35;6.70;99.90
52321;DHT22;38261;54.090;13.382;2023-02-13T06:16:57;6.70;99.90
52321;DHT22;38261;54.090;13.382;2023-02-13T06:18:19;6.70;99.90
52321;DHT22;38261;54.090;13.382;2023-02-13T06:19:41;6.70;99.90
52321;DHT22;38261;54.090;13.382;2023-02-13T06:21:04;6.70;99.90
52321;DHT22;38261;54.090;13.382;2023-02-13T06:22:27;6.70;99.90
52321;DHT22;38261;54.090;13.382;2023-02-13T06:23:49;6.70;99.90
52321;DHT22;38261;54.090;13.382;2023-02-13T06:25:11;6.80;99.90
52321;DHT22;38261;54.090;13.382;2023-02-13T06:26:34;6.80;99.90
52321;DHT22;38261;54.090;13.382;2023-02-13T06:27:56;6.80;99.90
52321;DHT22;38261;54.090;13.382;2023-02-13T06:29:19;6.80;99.90
52321;DHT22;38261;54.090;13.382;2023-02-13T06:30:41;6.80;99.90
52321;DHT22;38261;54.090;13.382;2023-02-13T06:32:03;6.80;99.90
52321;DHT22;38261;54.090;13.382;2023-02-13T06:33:25;6.80;99.90
52321;DHT22;38261;54.090;13.382;2023-02-13T06:34:47;6.80;99.90
52321;DHT22;38261;54.090;13.382;2023-02-13T06:36:09;6.80;99.90
52321;DHT22;38261;54.090;13.382;2023-02-13T06:37:32;6.80;99.90
52321;DHT22;38261;54.090;13.382;2023-02-13T06:38:54;6.80;99.90
52321;DHT22;38261;54.090;13.382;2023-02-13T06:40:16;6.80;99.90
52321;DHT22;38261;54.090;13.382;2023-02-13T06:41:39;6.80;99.90
52321;DHT22;38261;54.090;13.382;2023-02-13T06:43:01;6.80;99.90
52321;DHT22;38261;54.090;13.382;2023-02-13T06:44:23;6.80;99.90
52321;DHT22;38261;54.090;13.382;2023-02-13T06:45:45;6.80;99.90
52321;DHT22;38261;54.090;13.382;2023-02-13T06:47:08;6.80;99.90
52321;DHT22;38261;54.090;13.382;2023-02-13T06:48:30;6.80;99.90
52321;DHT22;38261;54.090;13.382;2023-02-13T06:49:52;6.80;99.90
52321;DHT22;38261;54.090;13.382;2023-02-13T06:51:14;6.80;99.90
52321;DHT22;38261;54.090;13.382;2023-02-13T06:52:36;6.80;99.90
52321;DHT22;38261;54.090;13.382;2023-02-13T06:53:58;6.90;99.90
52321;DHT22;38261;54.090;13.382;2023-02-13T06:55:20;6.80;99.90
52321;DHT22;38261;54.090;13.382;2023-02-13T06:56:43;6.80;99.90
52321;DHT22;38261;54.090;13.382;2023-02-13T06:58:05;6.80;99.90
52321;DHT22;38261;54.090;13.382;2023-02-13T06:59:27;6.80;99.90
52321;DHT22;38261;54.090;13.382;2023-02-13T07:00:50;6.80;99.90
52321;DHT22;38261;54.090;13.382;2023-02-13T07:02:12;6.80;99.90
52321;DHT22;38261;54.090;13.382;2023-02-13T07:03:35;6.80;99.90
52321;DHT22;38261;54.090;13.382;2023-02-13T07:04:57;6.80;99.90
52321;DHT22;38261;54.090;13.382;2023-02-13T07:06:20;6.80;99.90
52321;DHT22;38261;54.090;13.382;2023-02-13T07:07:42;6.80;99.90
52321;DHT22;38261;54.090;13.382;2023-02-13T07:09:04;6.90;99.90
52321;DHT22;38261;54.090;13.382;2023-02-13T07:10:26;6.90;99.90
52321;DHT22;38261;54.090;13.382;2023-02-13T07:11:49;6.80;99.90
52321;DHT22;38261;54.090;13.382;2023-02-13T07:13:13;6.90;99.90
52321;DHT22;38261;54.090;13.382;2023-02-13T07:14:35;6.90;99.90
52321;DHT22;38261;54.090;13.382;2023-02-13T07:15:59;6.90;99.90
52321;DHT22;38261;54.090;13.382;2023-02-13T07:17:22;6.90;99.90
52321;DHT22;38261;54.090;13.382;2023-02-13T07:18:44;6.90;99.90
52321;DHT22;38261;54.090;13.382;2023-02-13T07:20:07;6.90;99.90
52321;DHT22;38261;54.090;13.382;2023-02-13T07:21:29;6.90;99.90
52321;DHT22;38261;54.090;13.382;2023-02-13T07:22:51;6.90;99.90
52321;DHT22;38261;54.090;13.382;2023-02-13T07:24:13;6.90;99.90
52321;DHT22;38261;54.090;13.382;2023-02-13T07:25:35;6.90;99.90
52321;DHT22;38261;54.090;13.382;2023-02-13T07:26:57;7.00;99.90
52321;DHT22;38261;54.090;13.382;2023-02-13T07:28:20;7.00;99.90
52321;DHT22;38261;54.090;13.382;2023-02-13T07:29:42;7.00;99.90
52321;DHT22;38261;54.090;13.382;2023-02-13T07:31:04;7.00;99.90
52321;DHT22;38261;54.090;13.382;2023-02-13T07:32:27;7.10;99.90
52321;DHT22;38261;54.090;13.382;2023-02-13T07:33:49;7.10;99.90
52321;DHT22;38261;54.090;13.382;2023-02-13T07:35:11;7.10;99.90
52321;DHT22;38261;54.090;13.382;2023-02-13T07:36:33;7.10;99.90
52321;DHT22;38261;54.090;13.382;2023-02-13T07:37:55;7.10;99.90
52321;DHT22;38261;54.090;13.382;2023-02-13T07:39:18;7.20;99.90
52321;DHT22;38261;54.090;13.382;2023-02-13T07:40:40;7.20;99.90
52321;DHT22;38261;54.090;13.382;2023-02-13T07:42:02;7.20;99.90
52321;DHT22;38261;54.090;13.382;2023-02-13T07:43:24;7.20;99.90
52321;DHT22;38261;54.090;13.382;2023-02-13T07:44:46;7.20;99.90
52321;DHT22;38261;54.090;13.382;2023-02-13T07:46:09;7.20;99.90
52321;DHT22;38261;54.090;13.382;2023-02-13T07:47:32;7.30;99.90
52321;DHT22;38261;54.090;13.382;2023-02-13T07:48:55;7.30;99.90
52321;DHT22;38261;54.090;13.382;2023-02-13T07:50:17;7.30;99.90
52321;DHT22;38261;54.090;13.382;2023-02-13T07:51:39;7.30;99.90
52321;DHT22;38261;54.090;13.382;2023-02-13T07:53:01;7.40;99.90
52321;DHT22;38261;54.090;13.382;2023-02-13T07:54:23;7.40;99.90
52321;DHT22;38261;54.090;13.382;2023-02-13T07:55:46;7.40;99.90
52321;DHT22;38261;54.090;13.382;2023-02-13T07:57:08;7.40;99.90
52321;DHT22;38261;54.090;13.382;2023-02-13T07:58:30;7.40;99.90
52321;DHT22;38261;54.090;13.382;2023-02-13T07:59:53;7.40;99.90
52321;DHT22;38261;54.090;13.382;2023-02-13T08:01:16;7.40;99.90
52321;DHT22;38261;54.090;13.382;2023-02-13T08:02:38;7.30;99.90
52321;DHT22;38261;54.090;13.382;2023-02-13T08:04:00;7.30;99.90
52321;DHT22;38261;54.090;13.382;2023-02-13T08:05:22;7.30;99.90
52321;DHT22;38261;54.090;13.382;2023-02-13T08:06:44;7.30;99.90
52321;DHT22;38261;54.090;13.382;2023-02-13T08:08:07;7.20;99.90
52321;DHT22;38261;54.090;13.382;2023-02-13T08:09:29;7.30;99.90
52321;DHT22;38261;54.090;13.382;2023-02-13T08:11:36;7.30;99.90
52321;DHT22;38261;54.090;13.382;2023-02-13T08:13:17;7.30;99.90
52321;DHT22;38261;54.090;13.382;2023-02-13T08:14:39;7.40;99.90
52321;DHT22;38261;54.090;13.382;2023-02-13T08:16:02;7.40;99.90
52321;DHT22;38261;54.090;13.382;2023-02-13T08:17:24;7.40;99.90
52321;DHT22;38261;54.090;13.382;2023-02-13T08:18:46;7.40;99.90
52321;DHT22;38261;54.090;13.382;2023-02-13T08:20:09;7.40;99.90
52321;DHT22;38261;54.090;13.382;2023-02-13T08:21:31;7.40;99.90
52321;DHT22;38261;54.090;13.382;2023-02-13T08:22:53;7.40;99.90
52321;DHT22;38261;54.090;13.382;2023-02-13T08:24:15;7.50;99.90
52321;DHT22;38261;54.090;13.382;2023-02-13T08:25:38;7.60;99.90
52321;DHT22;38261;54.090;13.382;2023-02-13T08:27:00;7.60;99.90
52321;DHT22;38261;54.090;13.382;2023-02-13T08:28:22;7.60;99.90
52321;DHT22;38261;54.090;13.382;2023-02-13T08:29:44;7.60;99.90
52321;DHT22;38261;54.090;13.382;2023-02-13T08:31:10;7.70;99.90
52321;DHT22;38261;54.090;13.382;2023-02-13T08:32:33;7.70;99.90
52321;DHT22;38261;54.090;13.382;2023-02-13T08:34:13;7.70;99.90
52321;DHT22;38261;54.090;13.382;2023-02-13T08:35:35;7.80;99.90
52321;DHT22;38261;54.090;13.382;2023-02-13T08:36:57;7.80;99.90
52321;DHT22;38261;54.090;13.382;2023-02-13T08:38:20;7.80;99.90
52321;DHT22;38261;54.090;13.382;2023-02-13T08:39:43;7.80;99.90
52321;DHT22;38261;54.090;13.382;2023-02-13T08:41:05;7.80;99.90
52321;DHT22;38261;54.090;13.382;2023-02-13T08:42:27;7.90;99.90
52321;DHT22;38261;54.090;13.382;2023-02-13T08:43:49;7.90;99.90
52321;DHT22;38261;54.090;13.382;2023-02-13T08:45:11;7.90;99.90
52321;DHT22;38261;54.090;13.382;2023-02-13T08:46:33;7.90;99.90
52321;DHT22;38261;54.090;13.382;2023-02-13T08:47:56;7.80;99.90
52321;DHT22;38261;54.090;13.382;2023-02-13T08:49:19;7.80;99.90
52321;DHT22;38261;54.090;13.382;2023-02-13T08:50:41;7.90;99.90
52321;DHT22;38261;54.090;13.382;2023-02-13T08:52:03;7.90;99.90
52321;DHT22;38261;54.090;13.382;2023-02-13T08:53:26;7.90;99.90
52321;DHT22;38261;54.090;13.382;2023-02-13T08:54:48;7.90;99.90
52321;DHT22;38261;54.090;13.382;2023-02-13T08:56:10;7.90;99.90
52321;DHT22;38261;54.090;13.382;2023-02-13T08:57:32;7.90;99.90
52321;DHT22;38261;54.090;13.382;2023-02-13T08:58:54;7.80;99.90
52321;DHT22;38261;54.090;13.382;2023-02-13T09:00:17;7.80;99.90
52321;DHT22;38261;54.090;13.382;2023-02-13T09:01:39;7.80;99.90
52321;DHT22;38261;54.090;13.382;2023-02-13T09:03:02;7.90;99.90
52321;DHT22;38261;54.090;13.382;2023-02-13T09:04:24;7.90;99.90
52321;DHT22;38261;54.090;13.382;2023-02-13T09:05:47;7.90;99.90
52321;DHT22;38261;54.090;13.382;2023-02-13T09:07:09;7.90;99.90
52321;DHT22;38261;54.090;13.382;2023-02-13T09:08:31;8.00;99.90
52321;DHT22;38261;54.090;13.382;2023-02-13T09:09:55;8.00;99.90
52321;DHT22;38261;54.090;13.382;2023-02-13T09:11:17;8.00;99.90
52321;DHT22;38261;54.090;13.382;2023-02-13T09:12:40;8.00;99.90
52321;DHT22;38261;54.090;13.382;2023-02-13T09:14:02;8.00;99.90
52321;DHT22;38261;54.090;13.382;2023-02-13T09:15:24;8.00;99.90
52321;DHT22;38261;54.090;13.382;2023-02-13T09:16:46;8.00;99.90
52321;DHT22;38261;54.090;13.382;2023-02-13T09:18:08;8.00;99.90
52321;DHT22;38261;54.090;13.382;2023-02-13T09:19:31;8.00;99.90
52321;DHT22;38261;54.090;13.382;2023-02-13T09:21:00;7.90;99.90
52321;DHT22;38261;54.090;13.382;2023-02-13T09:22:23;8.00;99.90
52321;DHT22;38261;54.090;13.382;2023-02-13T09:23:45;8.00;99.90
52321;DHT22;38261;54.090;13.382;2023-02-13T09:25:07;8.10;99.90
52321;DHT22;38261;54.090;13.382;2023-02-13T09:26:30;8.10;99.90
52321;DHT22;38261;54.090;13.382;2023-02-13T09:27:52;8.20;99.90
52321;DHT22;38261;54.090;13.382;2023-02-13T09:29:14;8.20;99.90
52321;DHT22;38261;54.090;13.382;2023-02-13T09:30:36;8.10;99.90
52321;DHT22;38261;54.090;13.382;2023-02-13T09:31:58;8.10;99.90
52321;DHT22;38261;54.090;13.382;2023-02-13T09:33:20;8.20;99.90
52321;DHT22;38261;54.090;13.382;2023-02-13T09:34:42;8.20;99.90
52321;DHT22;38261;54.090;13.382;2023-02-13T09:36:06;8.20;99.90
52321;DHT22;38261;54.090;13.382;2023-02-13T09:37:29;8.20;99.90
52321;DHT22;38261;54.090;13.382;2023-02-13T09:38:56;8.20;99.90
52321;DHT22;38261;54.090;13.382;2023-02-13T09:41:46;8.20;99.90
52321;DHT22;38261;54.090;13.382;2023-02-13T09:43:28;8.20;99.90
52321;DHT22;38261;54.090;13.382;2023-02-13T09:44:54;8.20;99.90